Carbondale, CO (81623)

1:58 PM MDT on August 27, 2014 (GMT -0600)
Sunlight Mountain | Change Station
CLOSE
Current Station
Airport
Location: Sunlight Mountain,
Elevation: 10604 ft
Nearby Weather Stations
Active Advisory: Special Statement Active Notice: Public Information Statement

Elev 10604 ft 39.43 °N, 107.38 °W | Updated 54 seconds ago

Light Thunderstorms and Rain
Light Thunderstorm Rain
50 °F
Feels Like 50 °F
N
0
Wind Variable Wind from North

Today
High -- | Low -- °F
--% Chance of Precip.
Yesterday
High -- | Low -- °F
Precip. -- in
6:32 AM 7:46 PM
Waxing Crescent, 5% visible
Pressure 30.51 in
Visibility 10.0 miles
Clouds Scattered Clouds 900 ft
Mostly Cloudy 2100 ft
Overcast 6000 ft
Dew Point 45 °F
Humidity 82%
Rainfall 0.00 in
Snow Depth 2 in , 0 in , 0 in
UV 3 out of 12
Pollen 6.00 out of 12
Air Quality Not available.
Flu Activity Not available.
METAR K5SM 271958Z AUTO 00000KT 10SM -TSRA SCT009 BKN021 OVC060 10/07 A3051 RMK AO2 LTG DSNT SW THRU N

More Conditions Fewer Conditions

Pressure 30.51 in
Visibility 10.0 miles
Clouds Scattered Clouds 900 ft
Mostly Cloudy 2100 ft
Overcast 6000 ft
Dew Point 45 °F
Humidity 82%
Rainfall 0.00 in
Snow Depth 2 in , 0 in , 0 in
UV 3 out of 12
Pollen 6.00 out of 12
Air Quality Not available.
Flu Activity Not available.
METAR K5SM 271958Z AUTO 00000KT 10SM -TSRA SCT009 BKN021 OVC060 10/07 A3051 RMK AO2 LTG DSNT SW THRU N

More Conditions Fewer Conditions

10-Day Weather Forecast

Almanac

Astronomy

Aug. 27, 2014 Rise Set
Actual Time 6:32 AM MDT 7:46 PM MDT
Civil Twilight 6:04 AM MDT 8:14 PM MDT
Nautical Twilight 5:31 AM MDT 8:47 PM MDT
Astronomical Twilight 4:56 AM MDT 9:22 PM MDT
Moon 8:30 AM MDT 8:41 PM MDT
Length of Visible Light 14h 09m
Length of Day
13h 14m
Tomorrow will be 2m 25s shorter.
Waxing Crescent, 5% of the Moon is Illuminated
Today
Waxing Crescent
Sep 2
First Quarter
Sep 8
Full
Sep 15
Last Quarter
Sep 24
New

Today's Extremes

State Highs State Lows

Community

WunderPhotos

Upload Photos

1,747,771 photos uploaded!

Nearby

Snow Depth

Station Depth Elevation
McClure Pass 2 in 9500 ft
North Lost Trail 0 in 9200 ft
Schofield Pass 0 in 10700 ft
Overland Reservoir 0 in 9880 ft
Kiln 0 in 9600 ft

Earthquake Activity

City Distance Mag. Time & Date
No recent earthquake activity has been reported nearby.
Minimum magnitude displayed is 2.5.

Coastal Water Temperatures

Place Temperature
No Stations Reporting

Nearby Weather Stations